ADDS METAR Data INFO
IDs: Format: Raw Decoded Include TAF

Data at: 2253 UTC 22 Jun 2018

KFOE 222153Z 35006KT 10SM OVC023 22/17 A2983 RMK AO2 SLP093 T02170167
KFOE 222111Z 33010KT 10SM SCT019 OVC028 22/17 A2984 RMK AO2 T02220172
KFOE 222053Z 33010KT 10SM SCT019 OVC030 22/18 A2984 RMK AO2 SLP096 T02220178 58011
KFOE 222039Z VRB06KT 10SM SCT019 OVC030 22/18 A2984 RMK AO2 T02220183
KFOE 222020Z 33009KT 10SM SCT019 BKN027 OVC034 22/18 A2985 RMK AO2 T02220183
KFOE 221953Z 33008KT 10SM FEW017 FEW022 OVC033 22/18 A2986 RMK AO2 SLP102 T02220183
KFOE 221939Z 32009KT 10SM FEW014 SCT021 OVC031 22/18 A2986 RMK AO2 T02170178
KFOE 221922Z 32009KT 10SM FEW014 OVC020 22/18 A2985 RMK AO2 T02220183
KFOE 221853Z 33009KT 10SM OVC013 21/18 A2987 RMK AO2 SLP108 T02060178
KFOE 221850Z 33008KT 10SM OVC013 21/18 A2988 RMK AO2
KFOE 221753Z 30007KT 10SM BKN015 BKN024 OVC034 22/18 A2988 RMK AO2 SLP112 T02170178 10217 20189 50001
KFOE 221653Z 29008KT 10SM SCT016 BKN027 OVC033 21/18 A2989 RMK AO2 SLP114 T02110178
KFOE 221649Z 29008KT 10SM FEW016 BKN027 OVC033 21/18 A2989 RMK AO2
KFOE 221642Z 31007KT 10SM FEW022 OVC031 22/18 A2989 RMK AO2 T02170178
KFOE 221600Z VRB03KT 10SM OVC020 20/18 A2988 RMK AO2 T02000178
KFOE 221553Z 29004KT 9SM BKN010 BKN013 OVC018 19/18 A2988 RMK AO2 SLP112 T01940178
KFOE 221530Z 31007KT 3SM BR BKN010 BKN013 OVC018 19/18 A2988 RMK AO2 T01890178
KFOE 221516Z 32005KT 5SM BR BKN009 OVC015 19/18 A2988 RMK AO2 CIG 006V012 T01940178
KFOE 221453Z 34005KT 8SM OVC016 19/17 A2988 RMK AO2 SLP110 T01940172 50006
KFOE 221353Z 34005KT 9SM SCT016 OVC025 20/17 A2988 RMK AO2 SLP110 T02000172
KFOE 221253Z 34005KT 7SM SCT016 OVC022 19/18 A2986 RMK AO2 SLP105 T01940178
KFOE 221153Z 33007KT 8SM FEW014 OVC022 19/17 A2986 RMK AO2 SLP102 70003 T01940172 10200 20189 53012
KFOE 221053Z 33008KT 9SM OVC021 19/18 A2984 RMK AO2 SLP096 T01940178
KFOE 221014Z AUTO 34009KT 10SM FEW009 BKN023 OVC027 19/18 A2983 RMK AO2 T01940183
KFOE 220953Z AUTO 32008G17KT 10SM OVC012 20/18 A2983 RMK AO2 SLP094 T02000183
KFOE 220937Z AUTO 33011KT 10SM BKN012 OVC017 20/18 A2983 RMK AO2 T02000183
KFOE 220853Z AUTO 36009KT 10SM OVC017 20/18 A2982 RMK AO2 SLP089 T02000183 58003
KFOE 220840Z AUTO 35009KT 10SM OVC015 20/18 A2982 RMK AO2 T02000183
KFOE 220753Z AUTO 32010KT 10SM BKN014 OVC020 19/18 A2983 RMK AO2 SLP091 T01940183
KFOE 220722Z AUTO 31009KT 10SM SCT012 OVC022 19/18 A2982 RMK AO2 T01940183
KFOE 220653Z AUTO 31008KT 10SM OVC014 19/18 A2983 RMK AO2 SLP092 T01940183
KFOE 220553Z AUTO 30007KT 10SM OVC013 19/18 A2983 RMK AO2 SLP093 60002 T01890178 10200 20189 402280172 50000
KFOE 220517Z AUTO 29008KT 10SM BKN014 19/18 A2984 RMK AO2 T01890178
KFOE 220453Z AUTO 31007KT 10SM CLR 19/18 A2983 RMK AO2 SLP095 T01890178
KFOE 220353Z AUTO 32009KT 10SM CLR 19/18 A2984 RMK AO2 SLP097 T01890178
KFOE 220253Z 31010KT 10SM FEW070 19/18 A2983 RMK AO2 SLP092 60002 T01940183 53009
KFOE 220153Z 31011KT 10SM SCT022 BKN033 OVC050 20/19 A2982 RMK AO2 RAB06E26 SLP089 P0000 T02000189
KFOE 220100Z 30013KT 6SM BR FEW031 BKN042 OVC049 20/19 A2981 RMK AO2 T02000189
KFOE 220053Z 31014G21KT 1SM BR VV003 20/19 A2981 RMK AO2 RAE16B39E52 SLP086 P0002 T02000189 RVRNO
KFOE 220006Z 32010KT 1SM -RA BR VV003 20/19 A2980 RMK AO2 P0001 T02000189 RVRNO
KFOE 212353Z 33010KT 4SM -RA BR BKN034 OVC043 20/19 A2980 RMK AO2 RAB04 SLP085 P0001 60001 T02000189 10228 20200 52010
KFOE 212313Z 36007G19KT 6SM -RA BKN025 OVC031 21/18 A2980 RMK AO2 RAB04 P0000 T02060178
KFOE 211853Z 28018G28KT 10SM FEW028 OVC035 22/16 A2977 RMK AO2 PK WND 29036/1823 SLP075 T02170161
KFOE 211753Z 29016G26KT 10SM OVC034 22/16 A2977 RMK AO2 PK WND 28028/1716 RAB03E12 SLP075 P0000 60000 T02170156 10222 20172 56014
KFOE 211653Z 28017G25KT 10SM SCT037 BKN060 OVC070 22/14 A2978 RMK AO2 PK WND 29027/1608 RAE10 SLP077 P0000 T02170144
KFOE 211553Z 28014G27KT 10SM -RA SCT039 OVC060 22/15 A2981 RMK AO2 PK WND 28027/1544 RAB43 SLP085 P0000 T02170150
KFOE 211453Z 29013G23KT 10SM FEW065 SCT090 22/16 A2982 RMK AO2 PK WND 31026/1401 SLP087 T02220156 57009
KFOE 211353Z 28016G25KT 10SM CLR 21/16 A2982 RMK AO2 PK WND 29027/1340 SLP090 T02110156
KFOE 211253Z 28012G23KT 10SM CLR 19/16 A2983 RMK AO2 SLP092 T01940156
KFOE 211153Z 27012KT 10SM CLR 17/14 A2984 RMK AO2 SLP096 70086 T01720144 10189 20172 51007 $